createdAt,value
2019-06-20T00:01:45.604Z,18.70
2019-06-20T00:04:13.470Z,18.70
2019-06-20T00:06:41.349Z,18.70
2019-06-20T00:09:09.283Z,18.70
2019-06-20T00:11:37.149Z,18.70
2019-06-20T00:14:05.048Z,18.70
2019-06-20T00:16:33.001Z,18.60
2019-06-20T00:19:00.915Z,18.50
2019-06-20T00:21:28.835Z,18.50
2019-06-20T00:23:56.732Z,18.50
2019-06-20T00:26:24.637Z,18.40
2019-06-20T00:28:52.624Z,18.40
2019-06-20T00:31:20.515Z,18.30
2019-06-20T00:33:48.376Z,18.30
2019-06-20T00:36:16.285Z,18.30
2019-06-20T00:38:44.145Z,18.20
2019-06-20T00:41:12.021Z,18.20
2019-06-20T00:43:39.984Z,18.10
2019-06-20T00:46:08.033Z,18.00
2019-06-20T00:48:35.992Z,18.00
2019-06-20T00:51:03.868Z,18.00
2019-06-20T00:53:31.723Z,18.00
2019-06-20T00:55:59.588Z,17.90
2019-06-20T00:58:27.486Z,17.90
2019-06-20T01:00:55.391Z,17.90
2019-06-20T01:03:23.339Z,17.80
2019-06-20T01:05:51.315Z,17.80
2019-06-20T01:08:19.198Z,17.80
2019-06-20T01:10:47.086Z,17.80
2019-06-20T01:13:15.037Z,17.70
2019-06-20T01:15:43.018Z,17.60
2019-06-20T01:18:10.935Z,17.60
2019-06-20T01:20:38.883Z,17.60
2019-06-20T01:23:06.775Z,17.60
2019-06-20T01:25:34.655Z,17.50
2019-06-20T01:28:02.618Z,17.40
2019-06-20T01:30:30.493Z,17.40
2019-06-20T01:32:58.456Z,17.40
2019-06-20T01:35:26.372Z,17.40
2019-06-20T01:37:54.317Z,17.40
2019-06-20T01:40:22.392Z,17.40
2019-06-20T01:42:50.269Z,17.40
2019-06-20T01:45:18.266Z,17.40
2019-06-20T01:47:46.313Z,17.40
2019-06-20T01:50:14.227Z,17.30
2019-06-20T01:52:42.054Z,17.30
2019-06-20T01:55:09.947Z,17.20
2019-06-20T01:57:37.822Z,17.30
2019-06-20T02:00:05.722Z,17.20
2019-06-20T02:02:34.243Z,17.20
2019-06-20T02:05:02.311Z,17.10
2019-06-20T02:07:30.158Z,17.10
2019-06-20T02:09:58.064Z,17.10
2019-06-20T02:12:25.964Z,17.00
2019-06-20T02:14:53.992Z,17.00
2019-06-20T02:17:21.992Z,17.00
2019-06-20T02:19:49.879Z,16.90
2019-06-20T02:22:17.812Z,16.80
2019-06-20T02:24:45.683Z,16.80
2019-06-20T02:27:13.685Z,16.70
2019-06-20T02:29:41.709Z,16.70
2019-06-20T02:32:09.640Z,16.70
2019-06-20T02:34:37.514Z,16.60
2019-06-20T02:37:05.387Z,16.60
2019-06-20T02:39:33.265Z,16.60
2019-06-20T02:42:01.301Z,16.60
2019-06-20T02:44:30.813Z,16.50
2019-06-20T02:46:59.066Z,16.40
2019-06-20T02:49:27.108Z,16.40
2019-06-20T02:51:54.986Z,16.40
2019-06-20T02:54:22.851Z,16.30
2019-06-20T02:56:50.797Z,16.40
2019-06-20T02:59:18.656Z,16.30
2019-06-20T03:01:46.616Z,16.30
2019-06-20T03:04:14.483Z,16.20
2019-06-20T03:06:42.335Z,16.20
2019-06-20T03:09:10.311Z,16.20
2019-06-20T03:11:38.267Z,16.10
2019-06-20T03:14:06.254Z,16.10
2019-06-20T03:16:34.211Z,16.00
2019-06-20T03:19:02.101Z,16.00
2019-06-20T03:21:29.968Z,16.00
2019-06-20T03:23:57.853Z,16.00
2019-06-20T03:26:25.798Z,16.00
2019-06-20T03:28:53.700Z,15.90
2019-06-20T03:31:21.599Z,15.90
2019-06-20T03:33:49.495Z,15.80
2019-06-20T03:36:17.443Z,15.80
2019-06-20T03:38:51.270Z,15.80
2019-06-20T03:41:19.134Z,15.80
2019-06-20T03:43:47.068Z,15.70
2019-06-20T03:46:14.934Z,15.70
2019-06-20T03:48:42.814Z,15.70
2019-06-20T03:51:10.698Z,15.70
2019-06-20T03:53:38.648Z,15.70
2019-06-20T03:56:06.673Z,15.70
2019-06-20T03:58:34.572Z,15.60
2019-06-20T04:01:02.460Z,15.60
2019-06-20T04:03:30.455Z,15.60
2019-06-20T04:05:58.396Z,15.60
2019-06-20T04:08:26.375Z,15.60
2019-06-20T04:10:54.337Z,15.60
2019-06-20T04:13:22.177Z,15.60
2019-06-20T04:15:50.166Z,15.60
2019-06-20T04:18:18.162Z,15.60
2019-06-20T04:20:46.021Z,15.60
2019-06-20T04:23:13.992Z,15.50
2019-06-20T04:25:41.877Z,15.50
2019-06-20T04:28:09.777Z,15.50
2019-06-20T04:30:37.809Z,15.50
2019-06-20T04:33:05.735Z,15.50
2019-06-20T04:35:33.694Z,15.50
2019-06-20T04:38:01.616Z,15.50
2019-06-20T04:40:29.548Z,15.50
2019-06-20T04:42:57.444Z,15.60
2019-06-20T04:45:44.372Z,15.60
2019-06-20T04:48:12.332Z,15.60
2019-06-20T04:50:40.253Z,15.60
2019-06-20T04:53:08.098Z,15.60
2019-06-20T04:55:36.076Z,15.70
2019-06-20T04:58:03.950Z,15.70
2019-06-20T05:00:31.874Z,15.80
2019-06-20T05:02:59.803Z,15.80
2019-06-20T05:05:27.701Z,15.90
2019-06-20T05:07:55.621Z,16.00
2019-06-20T05:10:23.599Z,16.10
2019-06-20T05:12:51.478Z,16.20
2019-06-20T05:15:19.368Z,16.40
2019-06-20T05:17:47.304Z,16.60
2019-06-20T05:20:15.242Z,16.90
2019-06-20T05:22:43.088Z,17.00
2019-06-20T05:25:11.003Z,17.20
2019-06-20T05:27:38.877Z,17.40
2019-06-20T05:30:06.771Z,17.50
2019-06-20T05:32:34.720Z,17.70
2019-06-20T05:35:03.173Z,17.80
2019-06-20T05:37:31.333Z,17.90
2019-06-20T05:39:59.214Z,18.00
2019-06-20T05:42:27.282Z,18.20
2019-06-20T05:44:55.326Z,18.20
2019-06-20T05:47:23.289Z,18.30
2019-06-20T05:49:51.191Z,18.40
2019-06-20T05:52:19.055Z,18.40
2019-06-20T05:54:46.996Z,18.50
2019-06-20T05:57:14.908Z,18.50
2019-06-20T05:59:43.431Z,18.60
2019-06-20T06:02:11.515Z,18.60
2019-06-20T06:04:39.485Z,18.70
2019-06-20T06:07:07.384Z,18.80
2019-06-20T06:09:35.287Z,18.90
2019-06-20T06:12:03.212Z,18.90
2019-06-20T06:14:31.618Z,18.90
2019-06-20T06:16:59.706Z,18.90
2019-06-20T06:19:27.683Z,19.00
2019-06-20T06:21:55.565Z,19.00
2019-06-20T06:24:23.463Z,19.10
2019-06-20T06:26:51.334Z,19.10
2019-06-20T06:29:19.226Z,19.20
2019-06-20T06:31:47.264Z,19.20
2019-06-20T06:34:15.149Z,19.20
2019-06-20T06:36:43.065Z,19.20
2019-06-20T06:39:10.912Z,19.20
2019-06-20T06:41:38.801Z,19.30
2019-06-20T06:44:08.493Z,19.40
2019-06-20T06:46:44.878Z,19.40
2019-06-20T06:49:06.176Z,19.50
2019-06-20T06:51:34.235Z,19.50
2019-06-20T06:54:02.247Z,19.60
2019-06-20T06:56:30.230Z,19.60
2019-06-20T06:58:58.110Z,19.70
2019-06-20T07:01:26.079Z,19.70
2019-06-20T07:03:54.106Z,19.80
2019-06-20T07:06:22.045Z,19.80
2019-06-20T07:08:49.946Z,19.80
2019-06-20T07:11:17.813Z,19.90
2019-06-20T07:13:45.687Z,19.90
2019-06-20T07:16:13.567Z,19.90
2019-06-20T07:18:41.562Z,20.00
2019-06-20T07:21:09.614Z,20.00
2019-06-20T07:23:37.544Z,20.10
2019-06-20T07:26:05.521Z,20.20
2019-06-20T07:28:34.432Z,20.30
2019-06-20T07:31:02.407Z,20.40
2019-06-20T07:33:30.308Z,20.40
2019-06-20T07:35:58.320Z,20.50
2019-06-20T07:38:26.268Z,20.50
2019-06-20T07:40:54.215Z,20.60
2019-06-20T07:43:22.275Z,20.70
2019-06-20T07:46:02.019Z,20.90
2019-06-20T07:48:19.886Z,21.00
2019-06-20T07:50:47.840Z,21.00
2019-06-20T07:53:15.734Z,21.10
2019-06-20T07:55:43.751Z,21.20
2019-06-20T07:58:11.654Z,21.20
2019-06-20T08:00:39.610Z,21.20
2019-06-20T08:03:07.600Z,21.30
2019-06-20T08:05:35.525Z,21.30
2019-06-20T08:08:03.412Z,21.30
2019-06-20T08:10:31.305Z,21.30
2019-06-20T08:12:59.271Z,21.30
2019-06-20T08:15:27.161Z,21.30
2019-06-20T08:17:55.174Z,21.40
2019-06-20T08:20:23.080Z,21.40
2019-06-20T08:22:50.941Z,21.50
2019-06-20T08:25:18.816Z,21.50
2019-06-20T08:27:49.536Z,21.50
2019-06-20T08:30:17.485Z,21.50
2019-06-20T08:32:45.406Z,21.50
2019-06-20T08:35:13.353Z,21.60
2019-06-20T08:37:41.252Z,21.60
2019-06-20T08:40:09.149Z,21.70
2019-06-20T08:42:37.119Z,21.70
2019-06-20T08:45:06.117Z,21.70
2019-06-20T08:47:34.167Z,21.90
2019-06-20T08:50:02.055Z,22.00
2019-06-20T08:52:30.054Z,22.10
2019-06-20T08:54:59.505Z,22.20
2019-06-20T08:57:27.713Z,22.20
2019-06-20T08:59:57.169Z,22.40
2019-06-20T09:02:25.370Z,22.60
2019-06-20T09:04:54.862Z,22.70
2019-06-20T09:07:22.895Z,22.80
2019-06-20T09:09:50.897Z,23.00
2019-06-20T09:12:18.843Z,23.20
2019-06-20T09:14:46.797Z,23.20
2019-06-20T09:17:14.691Z,23.20
2019-06-20T09:19:42.532Z,23.20
2019-06-20T09:22:10.439Z,23.10
2019-06-20T09:24:38.310Z,23.20
2019-06-20T09:27:06.210Z,23.20
2019-06-20T09:29:41.781Z,23.30
2019-06-20T09:32:04.654Z,23.40
2019-06-20T09:34:32.743Z,23.60
2019-06-20T09:37:00.713Z,23.80
2019-06-20T09:39:28.592Z,23.90
2019-06-20T09:41:56.636Z,23.90
2019-06-20T09:44:24.498Z,23.90
2019-06-20T09:46:52.884Z,24.10
2019-06-20T09:49:21.922Z,24.20
2019-06-20T09:51:50.302Z,24.20
2019-06-20T09:54:18.324Z,24.20
2019-06-20T09:56:48.472Z,24.20
2019-06-20T09:59:27.298Z,24.20
2019-06-20T10:01:46.722Z,24.40
2019-06-20T10:04:15.209Z,24.60
2019-06-20T10:06:43.089Z,24.60
2019-06-20T10:09:11.123Z,24.50
2019-06-20T10:11:39.071Z,24.40
2019-06-20T10:14:07.030Z,24.30
2019-06-20T10:16:45.377Z,24.10
2019-06-20T10:19:04.604Z,23.90
2019-06-20T10:21:32.471Z,23.90
2019-06-20T10:24:00.807Z,23.80
2019-06-20T10:26:28.678Z,23.70
2019-06-20T10:28:57.428Z,23.70
2019-06-20T10:31:25.394Z,23.80
2019-06-20T10:33:53.288Z,23.90
2019-06-20T10:36:21.333Z,24.10
2019-06-20T10:38:50.340Z,24.00
2019-06-20T10:41:18.368Z,24.00
2019-06-20T10:43:47.519Z,24.00
2019-06-20T10:46:15.441Z,24.00
2019-06-20T10:48:44.322Z,24.00
2019-06-20T10:51:44.211Z,24.00
2019-06-20T10:54:13.181Z,24.10
2019-06-20T10:56:42.249Z,24.10
2019-06-20T10:59:11.082Z,24.10
2019-06-20T11:01:39.835Z,24.10
2019-06-20T11:04:08.685Z,24.00
2019-06-20T11:06:36.943Z,23.90
2019-06-20T11:09:04.979Z,24.00
2019-06-20T11:11:32.905Z,24.20
2019-06-20T11:14:00.902Z,24.40
2019-06-20T11:16:28.779Z,24.70
2019-06-20T11:18:56.715Z,24.90
2019-06-20T11:21:24.694Z,25.00
2019-06-20T11:23:52.556Z,25.00
2019-06-20T11:26:20.541Z,25.00
2019-06-20T11:28:48.762Z,24.80
2019-06-20T11:31:16.800Z,24.80
2019-06-20T11:33:44.736Z,24.60
2019-06-20T11:36:12.643Z,24.60
2019-06-20T11:38:40.738Z,24.50
2019-06-20T11:41:08.780Z,24.50
2019-06-20T11:43:38.121Z,24.60
2019-06-20T11:46:06.363Z,24.80
2019-06-20T11:48:35.312Z,25.10
2019-06-20T11:51:03.790Z,25.10
2019-06-20T11:53:33.261Z,25.30
2019-06-20T11:56:01.697Z,25.50
2019-06-20T11:58:29.608Z,25.80
2019-06-20T12:01:03.680Z,26.00
2019-06-20T12:03:27.139Z,26.10
2019-06-20T12:05:55.074Z,26.10
2019-06-20T12:08:22.963Z,26.10
2019-06-20T12:10:50.967Z,26.00
2019-06-20T12:13:18.894Z,25.70
2019-06-20T12:15:46.828Z,25.60
2019-06-20T12:18:14.805Z,25.60
2019-06-20T12:20:42.926Z,25.60
2019-06-20T12:23:10.983Z,25.60
2019-06-20T12:25:39.723Z,25.80
2019-06-20T12:28:08.643Z,25.90
2019-06-20T12:30:36.504Z,26.20
2019-06-20T12:33:04.434Z,26.40
2019-06-20T12:35:32.311Z,26.40
2019-06-20T12:38:00.238Z,26.50
2019-06-20T12:40:28.199Z,26.40
2019-06-20T12:42:56.082Z,26.30
2019-06-20T12:45:24.022Z,26.30
2019-06-20T12:47:51.889Z,26.20
2019-06-20T12:50:19.970Z,26.10
2019-06-20T12:52:49.543Z,26.00
2019-06-20T12:55:17.758Z,25.70
2019-06-20T12:57:46.304Z,25.50
2019-06-20T13:00:14.549Z,25.30
2019-06-20T13:02:43.778Z,25.10
2019-06-20T13:05:12.150Z,24.80
2019-06-20T13:07:40.716Z,24.60
2019-06-20T13:10:09.741Z,24.40
2019-06-20T13:12:37.736Z,24.40
2019-06-20T13:15:05.613Z,24.40
2019-06-20T13:17:33.477Z,24.40
2019-06-20T13:20:01.342Z,24.40
2019-06-20T13:22:29.297Z,24.70
2019-06-20T13:24:57.256Z,24.80
2019-06-20T13:27:25.146Z,25.00
2019-06-20T13:29:53.042Z,25.10
2019-06-20T13:32:20.919Z,25.20
2019-06-20T13:34:48.972Z,25.40
2019-06-20T13:37:16.950Z,25.60
2019-06-20T13:39:45.719Z,25.90
2019-06-20T13:42:13.655Z,26.10
2019-06-20T13:44:42.610Z,26.30
2019-06-20T13:47:11.210Z,26.40
2019-06-20T13:49:40.248Z,26.50
2019-06-20T13:52:08.756Z,26.50
2019-06-20T13:54:36.773Z,26.50
2019-06-20T13:57:04.793Z,26.60
2019-06-20T13:59:32.759Z,26.60
2019-06-20T14:02:06.721Z,26.50
2019-06-20T14:04:30.483Z,26.40
2019-06-20T14:06:58.341Z,26.30
2019-06-20T14:09:26.287Z,26.10
2019-06-20T14:11:54.261Z,26.00
2019-06-20T14:14:22.254Z,25.90
2019-06-20T14:16:50.818Z,26.00
2019-06-20T14:19:18.784Z,26.00
2019-06-20T14:21:47.237Z,26.00
2019-06-20T14:24:15.314Z,26.00
2019-06-20T14:26:44.782Z,26.10
2019-06-20T14:29:12.879Z,25.90
2019-06-20T14:31:40.812Z,25.80
2019-06-20T14:34:08.744Z,25.80
2019-06-20T14:36:36.795Z,25.70
2019-06-20T14:39:05.011Z,25.70
2019-06-20T14:41:33.031Z,25.70
2019-06-20T14:44:01.084Z,25.70
2019-06-20T14:46:30.385Z,25.80
2019-06-20T14:48:58.388Z,26.00
2019-06-20T14:51:26.258Z,26.10
2019-06-20T14:53:54.533Z,26.30
2019-06-20T14:56:22.589Z,26.30
2019-06-20T14:58:51.565Z,26.20
2019-06-20T15:01:19.636Z,26.00
2019-06-20T15:03:48.991Z,25.90
2019-06-20T15:06:17.144Z,25.60
2019-06-20T15:08:45.807Z,25.60
2019-06-20T15:11:14.771Z,25.40
2019-06-20T15:13:42.681Z,25.40
2019-06-20T15:16:10.572Z,25.40
2019-06-20T15:18:38.439Z,25.40
2019-06-20T15:21:06.301Z,25.70
2019-06-20T15:23:34.239Z,25.80
2019-06-20T15:26:02.310Z,25.80
2019-06-20T15:28:30.277Z,25.80
2019-06-20T15:30:58.176Z,25.80
2019-06-20T15:33:26.073Z,25.70
2019-06-20T15:35:55.216Z,25.50
2019-06-20T15:38:23.655Z,25.40
2019-06-20T15:40:51.682Z,25.20
2019-06-20T15:43:19.631Z,25.00
2019-06-20T15:45:49.891Z,24.70
2019-06-20T15:48:17.158Z,24.60
2019-06-20T15:50:45.034Z,24.80
2019-06-20T15:53:13.038Z,25.00
2019-06-20T15:55:41.097Z,25.10
2019-06-20T15:58:09.056Z,25.10
2019-06-20T16:00:37.042Z,25.30
2019-06-20T16:03:09.782Z,25.40
2019-06-20T16:05:40.483Z,25.30
2019-06-20T16:08:06.945Z,25.10
2019-06-20T16:10:34.820Z,25.00
2019-06-20T16:13:02.758Z,24.80
2019-06-20T16:15:30.889Z,24.70
2019-06-20T16:17:58.906Z,24.70
2019-06-20T16:20:26.772Z,24.70
2019-06-20T16:22:54.774Z,24.70
2019-06-20T16:25:22.803Z,24.60
2019-06-20T16:27:50.673Z,24.70
2019-06-20T16:30:20.200Z,24.60
2019-06-20T16:32:48.095Z,24.40
2019-06-20T16:35:16.105Z,24.30
2019-06-20T16:37:44.091Z,24.10
2019-06-20T16:40:12.090Z,24.10
2019-06-20T16:42:40.108Z,24.00
2019-06-20T16:45:08.020Z,24.00
2019-06-20T16:47:35.934Z,23.90
2019-06-20T16:50:03.947Z,23.70
2019-06-20T16:52:31.894Z,23.40
2019-06-20T16:54:59.837Z,23.20
2019-06-20T16:57:28.101Z,23.10
2019-06-20T16:59:55.966Z,22.90
2019-06-20T17:02:23.875Z,22.90
2019-06-20T17:04:51.893Z,22.90
2019-06-20T17:07:21.439Z,23.00
2019-06-20T17:09:49.425Z,23.10
2019-06-20T17:12:17.431Z,23.20
2019-06-20T17:14:45.338Z,23.30
2019-06-20T17:17:13.258Z,23.30
2019-06-20T17:19:42.210Z,23.30
2019-06-20T17:22:10.258Z,23.20
2019-06-20T17:24:38.154Z,23.10
2019-06-20T17:27:06.193Z,23.10
2019-06-20T17:29:34.081Z,23.10
2019-06-20T17:32:03.827Z,22.90
2019-06-20T17:34:31.769Z,22.70
2019-06-20T17:36:59.721Z,22.50
2019-06-20T17:39:27.621Z,22.30
2019-06-20T17:41:55.873Z,22.20
2019-06-20T17:44:26.705Z,22.00
2019-06-20T17:46:53.593Z,21.90
2019-06-20T17:49:21.570Z,21.80
2019-06-20T17:51:49.577Z,21.70
2019-06-20T17:54:17.582Z,21.60
2019-06-20T17:56:45.637Z,21.40
2019-06-20T17:59:13.658Z,21.30
2019-06-20T18:01:43.369Z,21.30
2019-06-20T18:04:13.920Z,21.20
2019-06-20T18:06:40.920Z,21.20
2019-06-20T18:09:08.981Z,21.20
2019-06-20T18:11:37.086Z,21.20
2019-06-20T18:14:05.120Z,21.10
2019-06-20T18:16:33.087Z,21.00
2019-06-20T18:19:01.106Z,20.90
2019-06-20T18:21:29.103Z,20.70
2019-06-20T18:23:57.099Z,20.60
2019-06-20T18:26:25.188Z,20.60
2019-06-20T18:28:53.226Z,20.60
2019-06-20T18:31:21.230Z,20.60
2019-06-20T18:33:49.092Z,20.60
2019-06-20T18:36:17.058Z,20.50
2019-06-20T18:38:45.062Z,20.60
2019-06-20T18:41:13.131Z,20.60
2019-06-20T18:43:41.174Z,20.50
2019-06-20T18:46:09.193Z,20.40
2019-06-20T18:48:37.178Z,20.40
2019-06-20T18:51:05.003Z,20.40
2019-06-20T18:53:32.920Z,20.30
2019-06-20T18:56:00.971Z,20.30
2019-06-20T18:58:28.901Z,20.30
2019-06-20T19:00:56.838Z,20.20
2019-06-20T19:03:24.785Z,20.20
2019-06-20T19:05:52.937Z,20.20
2019-06-20T19:08:21.002Z,20.10
2019-06-20T19:10:49.186Z,20.00
2019-06-20T19:13:17.094Z,20.10
2019-06-20T19:15:44.933Z,20.00
2019-06-20T19:18:13.216Z,20.00
2019-06-20T19:20:41.226Z,20.00
2019-06-20T19:23:09.235Z,19.90
2019-06-20T19:25:37.193Z,19.90
2019-06-20T19:28:06.418Z,19.90
2019-06-20T19:30:34.446Z,19.90
2019-06-20T19:33:02.444Z,19.90
2019-06-20T19:35:30.426Z,19.80
2019-06-20T19:37:58.396Z,19.80
2019-06-20T19:40:26.419Z,19.70
2019-06-20T19:42:54.380Z,19.70
2019-06-20T19:45:22.466Z,19.60
2019-06-20T19:47:50.420Z,19.60
2019-06-20T19:50:18.516Z,19.50
2019-06-20T19:52:46.580Z,19.50
2019-06-20T19:55:14.590Z,19.40
2019-06-20T19:57:42.453Z,19.40
2019-06-20T20:00:10.394Z,19.40
2019-06-20T20:02:38.406Z,19.30
2019-06-20T20:05:18.660Z,19.30
2019-06-20T20:07:38.860Z,19.20
2019-06-20T20:10:09.749Z,19.20
2019-06-20T20:12:37.709Z,19.20
2019-06-20T20:15:05.695Z,19.10
2019-06-20T20:17:33.743Z,19.00
2019-06-20T20:20:01.886Z,19.00
2019-06-20T20:22:30.016Z,18.90
2019-06-20T20:24:58.060Z,18.90
2019-06-20T20:27:28.515Z,18.80
2019-06-20T20:29:56.483Z,18.70
2019-06-20T20:32:24.470Z,18.60
2019-06-20T20:34:52.579Z,18.50
2019-06-20T20:37:20.651Z,18.40
2019-06-20T20:39:48.539Z,18.40
2019-06-20T20:42:17.858Z,18.30
2019-06-20T20:44:46.045Z,18.20
2019-06-20T20:47:14.081Z,18.10
2019-06-20T20:49:42.133Z,18.00
2019-06-20T20:52:09.977Z,18.00
2019-06-20T20:54:37.916Z,18.00
2019-06-20T20:57:05.987Z,17.90
2019-06-20T20:59:33.996Z,17.80
2019-06-20T21:02:02.041Z,17.80
2019-06-20T21:04:30.105Z,17.80
2019-06-20T21:06:58.048Z,17.70
2019-06-20T21:09:25.950Z,17.70
2019-06-20T21:11:53.820Z,17.60
2019-06-20T21:14:21.720Z,17.60
2019-06-20T21:16:49.716Z,17.50
2019-06-20T21:19:17.679Z,17.50
2019-06-20T21:21:45.737Z,17.50
2019-06-20T21:24:13.713Z,17.40
2019-06-20T21:26:49.565Z,17.30
2019-06-20T21:29:11.412Z,17.20
2019-06-20T21:31:39.630Z,17.10
2019-06-20T21:34:07.842Z,17.10
2019-06-20T21:36:35.805Z,17.00
2019-06-20T21:39:03.989Z,17.00
2019-06-20T21:41:31.964Z,16.90
2019-06-20T21:43:59.795Z,16.90
2019-06-20T21:46:27.761Z,16.90
2019-06-20T21:48:55.747Z,16.90
2019-06-20T21:51:23.829Z,16.80
2019-06-20T21:53:51.796Z,16.80
2019-06-20T21:56:19.660Z,16.70
2019-06-20T21:58:47.588Z,16.60
2019-06-20T22:01:15.512Z,16.50
2019-06-20T22:03:43.505Z,16.50
2019-06-20T22:06:23.384Z,16.60
2019-06-20T22:08:41.117Z,16.70
2019-06-20T22:11:08.989Z,16.70
2019-06-20T22:13:36.881Z,16.60
2019-06-20T22:16:04.879Z,16.70
2019-06-20T22:18:32.903Z,16.60
2019-06-20T22:21:00.871Z,16.50
2019-06-20T22:23:28.913Z,16.50
2019-06-20T22:25:56.798Z,16.50
2019-06-20T22:28:24.696Z,16.50
2019-06-20T22:30:52.676Z,16.50
2019-06-20T22:33:20.644Z,16.50
2019-06-20T22:35:48.560Z,16.50
2019-06-20T22:38:16.593Z,16.50
2019-06-20T22:40:44.618Z,16.50
2019-06-20T22:43:12.578Z,16.50
2019-06-20T22:45:40.538Z,16.40
2019-06-20T22:48:08.506Z,16.40
2019-06-20T22:50:36.660Z,16.40
2019-06-20T22:53:04.579Z,16.40
2019-06-20T22:55:32.420Z,16.30
2019-06-20T22:58:00.311Z,16.30
2019-06-20T23:00:28.186Z,16.30
2019-06-20T23:02:56.139Z,16.20
2019-06-20T23:05:24.064Z,16.30
2019-06-20T23:07:52.066Z,16.30
2019-06-20T23:10:19.977Z,16.20
2019-06-20T23:12:47.905Z,16.20
2019-06-20T23:15:15.855Z,16.20
2019-06-20T23:17:43.873Z,16.20
2019-06-20T23:20:11.820Z,16.10
2019-06-20T23:22:39.809Z,16.00
2019-06-20T23:25:07.834Z,16.00
2019-06-20T23:27:35.789Z,16.00
2019-06-20T23:30:03.786Z,15.90
2019-06-20T23:32:31.767Z,15.90
2019-06-20T23:34:59.645Z,15.90
2019-06-20T23:37:27.601Z,15.90
2019-06-20T23:39:55.466Z,15.80
2019-06-20T23:42:23.436Z,15.80
2019-06-20T23:44:51.431Z,15.80
2019-06-20T23:47:19.438Z,15.70
2019-06-20T23:49:47.429Z,15.70
2019-06-20T23:52:19.177Z,15.70
2019-06-20T23:54:47.066Z,15.70
2019-06-20T23:57:14.955Z,15.70
2019-06-20T23:59:42.840Z,15.70
